sensor_id;sensor_type;location;lat;lon;timestamp;temperature;humidity
37646;DHT22;23489;49.600;6.138;2023-06-05T00:02:07;14.60;68.50
37646;DHT22;23489;49.600;6.138;2023-06-05T00:04:32;14.50;68.50
37646;DHT22;23489;49.600;6.138;2023-06-05T00:07:02;14.50;68.50
37646;DHT22;23489;49.600;6.138;2023-06-05T00:09:27;14.50;69.00
37646;DHT22;23489;49.600;6.138;2023-06-05T00:11:53;14.50;69.20
37646;DHT22;23489;49.600;6.138;2023-06-05T00:14:19;14.40;69.40
37646;DHT22;23489;49.600;6.138;2023-06-05T00:16:44;14.40;69.50
37646;DHT22;23489;49.600;6.138;2023-06-05T00:19:10;14.40;69.70
37646;DHT22;23489;49.600;6.138;2023-06-05T00:21:36;14.30;70.00
37646;DHT22;23489;49.600;6.138;2023-06-05T00:24:01;14.30;70.20
37646;DHT22;23489;49.600;6.138;2023-06-05T00:26:27;14.30;70.50
37646;DHT22;23489;49.600;6.138;2023-06-05T00:28:53;14.20;70.70
37646;DHT22;23489;49.600;6.138;2023-06-05T00:31:18;14.20;70.90
37646;DHT22;23489;49.600;6.138;2023-06-05T00:33:47;14.20;71.30
37646;DHT22;23489;49.600;6.138;2023-06-05T00:36:13;14.10;71.40
37646;DHT22;23489;49.600;6.138;2023-06-05T00:38:39;14.10;71.60
37646;DHT22;23489;49.600;6.138;2023-06-05T00:41:05;14.10;71.80
37646;DHT22;23489;49.600;6.138;2023-06-05T00:43:30;14.00;71.90
37646;DHT22;23489;49.600;6.138;2023-06-05T00:46:00;14.00;72.10
37646;DHT22;23489;49.600;6.138;2023-06-05T00:48:29;14.00;72.40
37646;DHT22;23489;49.600;6.138;2023-06-05T00:50:55;13.90;72.50
37646;DHT22;23489;49.600;6.138;2023-06-05T00:53:23;13.90;72.70
37646;DHT22;23489;49.600;6.138;2023-06-05T00:55:50;13.90;72.80
37646;DHT22;23489;49.600;6.138;2023-06-05T00:58:17;13.90;73.00
37646;DHT22;23489;49.600;6.138;2023-06-05T01:00:43;13.80;73.10
37646;DHT22;23489;49.600;6.138;2023-06-05T01:03:10;13.80;73.40
37646;DHT22;23489;49.600;6.138;2023-06-05T01:05:37;13.80;73.60
37646;DHT22;23489;49.600;6.138;2023-06-05T01:08:04;13.70;73.90
37646;DHT22;23489;49.600;6.138;2023-06-05T01:10:31;13.70;74.10
37646;DHT22;23489;49.600;6.138;2023-06-05T01:13:04;13.70;74.20
37646;DHT22;23489;49.600;6.138;2023-06-05T01:15:32;13.60;74.40
37646;DHT22;23489;49.600;6.138;2023-06-05T01:18:00;13.60;74.60
37646;DHT22;23489;49.600;6.138;2023-06-05T01:20:37;13.60;74.90
37646;DHT22;23489;49.600;6.138;2023-06-05T01:23:06;13.60;75.10
37646;DHT22;23489;49.600;6.138;2023-06-05T01:25:33;13.50;75.20
37646;DHT22;23489;49.600;6.138;2023-06-05T01:28:02;13.50;75.40
37646;DHT22;23489;49.600;6.138;2023-06-05T01:30:30;13.50;75.50
37646;DHT22;23489;49.600;6.138;2023-06-05T01:33:10;13.40;75.70
37646;DHT22;23489;49.600;6.138;2023-06-05T01:35:39;13.40;75.90
37646;DHT22;23489;49.600;6.138;2023-06-05T01:38:07;13.30;75.90
37646;DHT22;23489;49.600;6.138;2023-06-05T01:40:35;13.30;76.10
37646;DHT22;23489;49.600;6.138;2023-06-05T01:43:02;13.40;76.40
37646;DHT22;23489;49.600;6.138;2023-06-05T01:45:28;13.30;76.60
37646;DHT22;23489;49.600;6.138;2023-06-05T01:47:55;13.30;76.60
37646;DHT22;23489;49.600;6.138;2023-06-05T01:50:22;13.30;76.70
37646;DHT22;23489;49.600;6.138;2023-06-05T01:52:48;13.20;76.80
37646;DHT22;23489;49.600;6.138;2023-06-05T01:55:19;13.20;76.90
37646;DHT22;23489;49.600;6.138;2023-06-05T01:57:52;13.20;77.20
37646;DHT22;23489;49.600;6.138;2023-06-05T02:00:18;13.20;77.20
37646;DHT22;23489;49.600;6.138;2023-06-05T02:02:49;13.20;77.40
37646;DHT22;23489;49.600;6.138;2023-06-05T02:05:16;13.20;77.50
37646;DHT22;23489;49.600;6.138;2023-06-05T02:07:47;13.10;77.60
37646;DHT22;23489;49.600;6.138;2023-06-05T02:10:15;13.10;77.80
37646;DHT22;23489;49.600;6.138;2023-06-05T02:12:44;13.10;77.90
37646;DHT22;23489;49.600;6.138;2023-06-05T02:15:10;13.10;77.90
37646;DHT22;23489;49.600;6.138;2023-06-05T02:17:41;13.10;78.10
37646;DHT22;23489;49.600;6.138;2023-06-05T02:20:20;13.10;78.30
37646;DHT22;23489;49.600;6.138;2023-06-05T02:22:46;13.00;78.50
37646;DHT22;23489;49.600;6.138;2023-06-05T02:25:15;13.00;78.80
37646;DHT22;23489;49.600;6.138;2023-06-05T02:27:42;12.90;78.80
37646;DHT22;23489;49.600;6.138;2023-06-05T02:30:09;12.90;79.00
37646;DHT22;23489;49.600;6.138;2023-06-05T02:32:35;12.90;79.20
37646;DHT22;23489;49.600;6.138;2023-06-05T02:35:02;12.90;79.20
37646;DHT22;23489;49.600;6.138;2023-06-05T02:37:30;12.90;79.20
37646;DHT22;23489;49.600;6.138;2023-06-05T02:40:04;12.90;79.20
37646;DHT22;23489;49.600;6.138;2023-06-05T02:42:31;12.90;79.30
37646;DHT22;23489;49.600;6.138;2023-06-05T02:44:57;12.80;79.40
37646;DHT22;23489;49.600;6.138;2023-06-05T02:47:22;12.80;79.40
37646;DHT22;23489;49.600;6.138;2023-06-05T02:49:48;12.80;79.40
37646;DHT22;23489;49.600;6.138;2023-06-05T02:52:13;12.80;79.40
37646;DHT22;23489;49.600;6.138;2023-06-05T02:54:39;12.80;79.30
37646;DHT22;23489;49.600;6.138;2023-06-05T02:57:07;12.80;79.40
37646;DHT22;23489;49.600;6.138;2023-06-05T02:59:36;12.80;79.50
37646;DHT22;23489;49.600;6.138;2023-06-05T03:02:06;12.80;79.80
37646;DHT22;23489;49.600;6.138;2023-06-05T03:04:32;12.80;79.70
37646;DHT22;23489;49.600;6.138;2023-06-05T03:06:58;12.80;79.70
37646;DHT22;23489;49.600;6.138;2023-06-05T03:09:25;12.80;79.80
37646;DHT22;23489;49.600;6.138;2023-06-05T03:11:52;12.70;79.70
37646;DHT22;23489;49.600;6.138;2023-06-05T03:14:19;12.70;79.80
37646;DHT22;23489;49.600;6.138;2023-06-05T03:16:45;12.70;79.90
37646;DHT22;23489;49.600;6.138;2023-06-05T03:19:13;12.70;80.00
37646;DHT22;23489;49.600;6.138;2023-06-05T03:21:41;12.70;80.00
37646;DHT22;23489;49.600;6.138;2023-06-05T03:24:10;12.70;80.00
37646;DHT22;23489;49.600;6.138;2023-06-05T03:26:42;12.70;80.00
37646;DHT22;23489;49.600;6.138;2023-06-05T03:29:10;12.70;80.10
37646;DHT22;23489;49.600;6.138;2023-06-05T03:31:36;12.70;80.30
37646;DHT22;23489;49.600;6.138;2023-06-05T03:34:02;12.70;80.30
37646;DHT22;23489;49.600;6.138;2023-06-05T03:36:30;12.70;80.20
37646;DHT22;23489;49.600;6.138;2023-06-05T03:39:02;12.70;80.10
37646;DHT22;23489;49.600;6.138;2023-06-05T03:41:28;12.70;80.30
37646;DHT22;23489;49.600;6.138;2023-06-05T03:43:55;12.70;80.30
37646;DHT22;23489;49.600;6.138;2023-06-05T03:46:22;12.70;79.80
37646;DHT22;23489;49.600;6.138;2023-06-05T03:48:50;12.70;79.70
37646;DHT22;23489;49.600;6.138;2023-06-05T03:51:19;12.80;79.60
37646;DHT22;23489;49.600;6.138;2023-06-05T03:53:45;12.80;79.50
37646;DHT22;23489;49.600;6.138;2023-06-05T03:56:12;12.80;79.10
37646;DHT22;23489;49.600;6.138;2023-06-05T03:58:40;12.90;79.10
37646;DHT22;23489;49.600;6.138;2023-06-05T04:01:07;12.90;78.90
37646;DHT22;23489;49.600;6.138;2023-06-05T04:03:33;12.90;78.90
37646;DHT22;23489;49.600;6.138;2023-06-05T04:06:03;13.00;79.00
37646;DHT22;23489;49.600;6.138;2023-06-05T04:08:29;13.00;79.10
37646;DHT22;23489;49.600;6.138;2023-06-05T04:10:54;13.00;79.00
37646;DHT22;23489;49.600;6.138;2023-06-05T04:13:20;13.00;78.90
37646;DHT22;23489;49.600;6.138;2023-06-05T04:15:47;13.10;79.00
37646;DHT22;23489;49.600;6.138;2023-06-05T04:18:14;13.10;78.80
37646;DHT22;23489;49.600;6.138;2023-06-05T04:20:40;13.10;78.50
37646;DHT22;23489;49.600;6.138;2023-06-05T04:23:08;13.20;78.50
37646;DHT22;23489;49.600;6.138;2023-06-05T04:25:37;13.20;78.40
37646;DHT22;23489;49.600;6.138;2023-06-05T04:28:06;13.20;78.30
37646;DHT22;23489;49.600;6.138;2023-06-05T04:30:33;13.30;77.90
37646;DHT22;23489;49.600;6.138;2023-06-05T04:32:59;13.30;77.90
37646;DHT22;23489;49.600;6.138;2023-06-05T04:35:25;13.40;77.30
37646;DHT22;23489;49.600;6.138;2023-06-05T04:37:52;13.50;78.30
37646;DHT22;23489;49.600;6.138;2023-06-05T04:40:20;13.50;77.80
37646;DHT22;23489;49.600;6.138;2023-06-05T04:42:47;13.50;77.60
37646;DHT22;23489;49.600;6.138;2023-06-05T04:45:14;13.60;77.60
37646;DHT22;23489;49.600;6.138;2023-06-05T04:47:44;13.60;77.70
37646;DHT22;23489;49.600;6.138;2023-06-05T04:50:22;13.70;77.40
37646;DHT22;23489;49.600;6.138;2023-06-05T04:52:50;13.80;77.20
37646;DHT22;23489;49.600;6.138;2023-06-05T04:55:16;13.90;76.90
37646;DHT22;23489;49.600;6.138;2023-06-05T04:57:42;14.20;76.70
37646;DHT22;23489;49.600;6.138;2023-06-05T05:00:08;14.60;75.30
37646;DHT22;23489;49.600;6.138;2023-06-05T05:02:35;15.10;74.20
37646;DHT22;23489;49.600;6.138;2023-06-05T05:05:02;15.30;73.30
37646;DHT22;23489;49.600;6.138;2023-06-05T05:07:28;15.50;72.60
37646;DHT22;23489;49.600;6.138;2023-06-05T05:09:54;15.50;72.60
37646;DHT22;23489;49.600;6.138;2023-06-05T05:12:19;15.50;72.20
37646;DHT22;23489;49.600;6.138;2023-06-05T05:14:46;15.40;72.50
37646;DHT22;23489;49.600;6.138;2023-06-05T05:17:11;15.50;71.70
37646;DHT22;23489;49.600;6.138;2023-06-05T05:19:39;15.60;71.50
37646;DHT22;23489;49.600;6.138;2023-06-05T05:22:07;15.70;71.40
37646;DHT22;23489;49.600;6.138;2023-06-05T05:24:32;15.60;71.60
37646;DHT22;23489;49.600;6.138;2023-06-05T05:26:58;15.60;71.10
37646;DHT22;23489;49.600;6.138;2023-06-05T05:29:25;15.80;70.40
37646;DHT22;23489;49.600;6.138;2023-06-05T05:31:52;15.90;70.10
37646;DHT22;23489;49.600;6.138;2023-06-05T05:34:18;16.00;69.80
37646;DHT22;23489;49.600;6.138;2023-06-05T05:36:43;16.20;69.70
37646;DHT22;23489;49.600;6.138;2023-06-05T05:39:10;16.30;69.70
37646;DHT22;23489;49.600;6.138;2023-06-05T05:41:35;16.50;68.80
37646;DHT22;23489;49.600;6.138;2023-06-05T05:44:01;16.60;68.50
37646;DHT22;23489;49.600;6.138;2023-06-05T05:46:27;16.60;68.00
37646;DHT22;23489;49.600;6.138;2023-06-05T05:48:53;16.70;67.80
37646;DHT22;23489;49.600;6.138;2023-06-05T05:51:20;16.80;68.10
37646;DHT22;23489;49.600;6.138;2023-06-05T05:53:46;17.00;67.10
37646;DHT22;23489;49.600;6.138;2023-06-05T05:56:13;17.20;66.20
37646;DHT22;23489;49.600;6.138;2023-06-05T05:58:39;17.30;65.70
37646;DHT22;23489;49.600;6.138;2023-06-05T06:01:04;17.50;65.70
37646;DHT22;23489;49.600;6.138;2023-06-05T06:03:30;17.50;65.70
37646;DHT22;23489;49.600;6.138;2023-06-05T06:05:58;17.60;64.30
37646;DHT22;23489;49.600;6.138;2023-06-05T06:08:23;17.90;65.00
37646;DHT22;23489;49.600;6.138;2023-06-05T06:10:50;18.10;64.60
37646;DHT22;23489;49.600;6.138;2023-06-05T06:13:15;19.00;63.00
37646;DHT22;23489;49.600;6.138;2023-06-05T06:15:41;19.70;61.90
37646;DHT22;23489;49.600;6.138;2023-06-05T06:18:06;21.10;59.40
37646;DHT22;23489;49.600;6.138;2023-06-05T06:20:32;22.70;56.70
37646;DHT22;23489;49.600;6.138;2023-06-05T06:22:58;23.40;55.60
37646;DHT22;23489;49.600;6.138;2023-06-05T06:25:24;23.80;55.30
37646;DHT22;23489;49.600;6.138;2023-06-05T06:27:57;23.10;56.20
37646;DHT22;23489;49.600;6.138;2023-06-05T06:30:24;24.40;55.00
37646;DHT22;23489;49.600;6.138;2023-06-05T06:32:50;25.40;54.30
37646;DHT22;23489;49.600;6.138;2023-06-05T06:35:15;25.10;53.90
37646;DHT22;23489;49.600;6.138;2023-06-05T06:37:41;26.50;51.70
37646;DHT22;23489;49.600;6.138;2023-06-05T06:40:08;27.00;50.30
37646;DHT22;23489;49.600;6.138;2023-06-05T06:42:37;26.10;51.10
37646;DHT22;23489;49.600;6.138;2023-06-05T06:45:29;26.00;51.80
37646;DHT22;23489;49.600;6.138;2023-06-05T06:47:54;27.40;49.80
37646;DHT22;23489;49.600;6.138;2023-06-05T06:50:20;27.30;49.80
37646;DHT22;23489;49.600;6.138;2023-06-05T06:52:45;27.10;49.00
37646;DHT22;23489;49.600;6.138;2023-06-05T06:55:11;27.30;49.90
37646;DHT22;23489;49.600;6.138;2023-06-05T06:57:37;27.40;48.50
37646;DHT22;23489;49.600;6.138;2023-06-05T07:00:03;27.20;48.80
37646;DHT22;23489;49.600;6.138;2023-06-05T07:02:33;27.70;48.50
37646;DHT22;23489;49.600;6.138;2023-06-05T07:04:58;28.30;47.50
37646;DHT22;23489;49.600;6.138;2023-06-05T07:07:24;28.60;47.20
37646;DHT22;23489;49.600;6.138;2023-06-05T07:09:50;28.40;47.90
37646;DHT22;23489;49.600;6.138;2023-06-05T07:12:18;29.40;44.60
37646;DHT22;23489;49.600;6.138;2023-06-05T07:14:46;30.30;43.80
37646;DHT22;23489;49.600;6.138;2023-06-05T07:17:12;29.70;43.70
37646;DHT22;23489;49.600;6.138;2023-06-05T07:19:38;28.40;45.10
37646;DHT22;23489;49.600;6.138;2023-06-05T07:22:05;28.90;44.80
37646;DHT22;23489;49.600;6.138;2023-06-05T07:24:31;29.40;43.90
37646;DHT22;23489;49.600;6.138;2023-06-05T07:27:00;29.70;44.50
37646;DHT22;23489;49.600;6.138;2023-06-05T07:29:25;30.00;43.10
37646;DHT22;23489;49.600;6.138;2023-06-05T07:31:52;30.60;42.40
37646;DHT22;23489;49.600;6.138;2023-06-05T07:34:19;30.00;42.60
37646;DHT22;23489;49.600;6.138;2023-06-05T07:36:46;29.70;42.70
37646;DHT22;23489;49.600;6.138;2023-06-05T07:39:12;29.50;43.40
37646;DHT22;23489;49.600;6.138;2023-06-05T07:41:38;29.70;43.00
37646;DHT22;23489;49.600;6.138;2023-06-05T07:44:12;29.70;42.90
37646;DHT22;23489;49.600;6.138;2023-06-05T07:46:42;29.80;42.60
37646;DHT22;23489;49.600;6.138;2023-06-05T07:49:09;29.60;43.00
37646;DHT22;23489;49.600;6.138;2023-06-05T07:51:35;29.80;42.90
37646;DHT22;23489;49.600;6.138;2023-06-05T07:54:10;30.40;41.60
37646;DHT22;23489;49.600;6.138;2023-06-05T07:56:36;29.40;42.20
37646;DHT22;23489;49.600;6.138;2023-06-05T07:59:02;29.30;43.00
37646;DHT22;23489;49.600;6.138;2023-06-05T08:01:33;30.00;42.40
37646;DHT22;23489;49.600;6.138;2023-06-05T08:04:05;30.50;41.90
37646;DHT22;23489;49.600;6.138;2023-06-05T08:06:31;30.80;41.50
37646;DHT22;23489;49.600;6.138;2023-06-05T08:09:00;30.40;41.60
37646;DHT22;23489;49.600;6.138;2023-06-05T08:11:27;31.10;41.60
37646;DHT22;23489;49.600;6.138;2023-06-05T08:13:56;31.60;40.50
37646;DHT22;23489;49.600;6.138;2023-06-05T08:16:22;31.50;40.80
37646;DHT22;23489;49.600;6.138;2023-06-05T08:18:48;32.10;40.30
37646;DHT22;23489;49.600;6.138;2023-06-05T08:21:14;32.20;40.30
37646;DHT22;23489;49.600;6.138;2023-06-05T08:23:39;32.00;40.40
37646;DHT22;23489;49.600;6.138;2023-06-05T08:26:05;32.70;39.90
37646;DHT22;23489;49.600;6.138;2023-06-05T08:28:38;32.50;39.70
37646;DHT22;23489;49.600;6.138;2023-06-05T08:31:05;33.20;39.60
37646;DHT22;23489;49.600;6.138;2023-06-05T08:33:35;33.40;39.30
37646;DHT22;23489;49.600;6.138;2023-06-05T08:36:01;34.50;38.70
37646;DHT22;23489;49.600;6.138;2023-06-05T08:38:31;34.30;38.30
37646;DHT22;23489;49.600;6.138;2023-06-05T08:41:04;34.20;39.00
37646;DHT22;23489;49.600;6.138;2023-06-05T08:43:31;34.80;38.70
37646;DHT22;23489;49.600;6.138;2023-06-05T08:45:57;34.90;38.00
37646;DHT22;23489;49.600;6.138;2023-06-05T08:48:24;34.70;37.90
37646;DHT22;23489;49.600;6.138;2023-06-05T08:50:51;34.80;37.20
37646;DHT22;23489;49.600;6.138;2023-06-05T08:53:17;33.90;38.10
37646;DHT22;23489;49.600;6.138;2023-06-05T08:55:49;33.80;38.40
37646;DHT22;23489;49.600;6.138;2023-06-05T08:58:17;33.00;39.00
37646;DHT22;23489;49.600;6.138;2023-06-05T09:00:43;33.80;38.10
37646;DHT22;23489;49.600;6.138;2023-06-05T09:03:10;34.00;37.40
37646;DHT22;23489;49.600;6.138;2023-06-05T09:05:38;33.90;37.80
37646;DHT22;23489;49.600;6.138;2023-06-05T09:08:06;33.70;37.50
37646;DHT22;23489;49.600;6.138;2023-06-05T09:10:32;33.60;37.70
37646;DHT22;23489;49.600;6.138;2023-06-05T09:13:00;34.30;36.60
37646;DHT22;23489;49.600;6.138;2023-06-05T09:15:30;33.80;37.00
37646;DHT22;23489;49.600;6.138;2023-06-05T09:18:10;33.70;37.80
37646;DHT22;23489;49.600;6.138;2023-06-05T09:20:45;33.70;37.20
37646;DHT22;23489;49.600;6.138;2023-06-05T09:23:28;34.20;36.80
37646;DHT22;23489;49.600;6.138;2023-06-05T09:25:58;34.70;36.20
37646;DHT22;23489;49.600;6.138;2023-06-05T09:28:25;34.70;36.20
37646;DHT22;23489;49.600;6.138;2023-06-05T09:30:57;35.20;35.40
37646;DHT22;23489;49.600;6.138;2023-06-05T09:33:28;34.40;35.60
37646;DHT22;23489;49.600;6.138;2023-06-05T09:38:29;33.40;36.60
37646;DHT22;23489;49.600;6.138;2023-06-05T09:41:22;33.40;36.90
37646;DHT22;23489;49.600;6.138;2023-06-05T09:43:48;33.70;37.10
37646;DHT22;23489;49.600;6.138;2023-06-05T09:46:16;34.00;36.70
37646;DHT22;23489;49.600;6.138;2023-06-05T09:48:42;34.30;36.20
37646;DHT22;23489;49.600;6.138;2023-06-05T09:51:16;34.00;35.90
37646;DHT22;23489;49.600;6.138;2023-06-05T09:53:48;33.40;37.20
37646;DHT22;23489;49.600;6.138;2023-06-05T09:56:18;33.50;36.80
37646;DHT22;23489;49.600;6.138;2023-06-05T09:58:51;33.40;36.90
37646;DHT22;23489;49.600;6.138;2023-06-05T10:01:23;32.70;37.20
37646;DHT22;23489;49.600;6.138;2023-06-05T10:04:06;33.10;37.20
37646;DHT22;23489;49.600;6.138;2023-06-05T10:06:34;33.30;36.90
37646;DHT22;23489;49.600;6.138;2023-06-05T10:09:00;33.10;36.10
37646;DHT22;23489;49.600;6.138;2023-06-05T10:11:26;32.80;36.20
37646;DHT22;23489;49.600;6.138;2023-06-05T10:13:53;32.10;37.80
37646;DHT22;23489;49.600;6.138;2023-06-05T10:16:20;31.20;36.60
37646;DHT22;23489;49.600;6.138;2023-06-05T10:18:47;31.30;36.70
37646;DHT22;23489;49.600;6.138;2023-06-05T10:21:15;31.10;37.60
37646;DHT22;23489;49.600;6.138;2023-06-05T10:24:02;31.10;37.40
37646;DHT22;23489;49.600;6.138;2023-06-05T10:26:44;31.90;37.60
37646;DHT22;23489;49.600;6.138;2023-06-05T10:31:51;33.40;37.30
37646;DHT22;23489;49.600;6.138;2023-06-05T10:39:24;32.30;35.90
37646;DHT22;23489;49.600;6.138;2023-06-05T10:41:51;31.40;36.70
37646;DHT22;23489;49.600;6.138;2023-06-05T10:44:17;31.60;36.30
37646;DHT22;23489;49.600;6.138;2023-06-05T10:46:42;31.60;36.60
37646;DHT22;23489;49.600;6.138;2023-06-05T10:49:16;32.40;36.00
37646;DHT22;23489;49.600;6.138;2023-06-05T10:51:49;32.70;35.10
37646;DHT22;23489;49.600;6.138;2023-06-05T10:59:19;33.20;35.10
37646;DHT22;23489;49.600;6.138;2023-06-05T11:07:18;31.70;36.60
37646;DHT22;23489;49.600;6.138;2023-06-05T11:15:05;28.00;41.00
37646;DHT22;23489;49.600;6.138;2023-06-05T11:17:35;27.60;42.20
37646;DHT22;23489;49.600;6.138;2023-06-05T11:20:02;27.50;41.80
37646;DHT22;23489;49.600;6.138;2023-06-05T11:22:31;27.10;42.10
37646;DHT22;23489;49.600;6.138;2023-06-05T11:27:45;26.80;43.00
37646;DHT22;23489;49.600;6.138;2023-06-05T11:30:33;26.70;43.10
37646;DHT22;23489;49.600;6.138;2023-06-05T11:33:08;26.80;42.60
37646;DHT22;23489;49.600;6.138;2023-06-05T11:35:35;26.70;43.10
37646;DHT22;23489;49.600;6.138;2023-06-05T11:38:13;26.60;43.20
37646;DHT22;23489;49.600;6.138;2023-06-05T11:40:39;27.00;43.80
37646;DHT22;23489;49.600;6.138;2023-06-05T11:43:07;26.90;43.20
37646;DHT22;23489;49.600;6.138;2023-06-05T11:45:34;26.50;43.40
37646;DHT22;23489;49.600;6.138;2023-06-05T11:48:12;26.40;43.60
37646;DHT22;23489;49.600;6.138;2023-06-05T11:50:38;26.50;44.00
37646;DHT22;23489;49.600;6.138;2023-06-05T11:53:09;26.30;43.50
37646;DHT22;23489;49.600;6.138;2023-06-05T11:55:35;26.00;43.80
37646;DHT22;23489;49.600;6.138;2023-06-05T11:58:21;26.00;44.00
37646;DHT22;23489;49.600;6.138;2023-06-05T12:00:47;25.80;44.50
37646;DHT22;23489;49.600;6.138;2023-06-05T12:03:19;25.70;44.00
37646;DHT22;23489;49.600;6.138;2023-06-05T12:05:47;25.60;44.40
37646;DHT22;23489;49.600;6.138;2023-06-05T12:08:22;25.70;43.70
37646;DHT22;23489;49.600;6.138;2023-06-05T12:10:50;25.90;43.80
37646;DHT22;23489;49.600;6.138;2023-06-05T12:13:16;26.10;43.80
37646;DHT22;23489;49.600;6.138;2023-06-05T12:15:42;26.10;44.00
37646;DHT22;23489;49.600;6.138;2023-06-05T12:18:07;26.30;43.70
37646;DHT22;23489;49.600;6.138;2023-06-05T12:20:37;26.40;43.90
37646;DHT22;23489;49.600;6.138;2023-06-05T12:23:05;26.30;42.90
37646;DHT22;23489;49.600;6.138;2023-06-05T12:25:31;26.20;43.70
37646;DHT22;23489;49.600;6.138;2023-06-05T12:27:56;26.20;42.50
37646;DHT22;23489;49.600;6.138;2023-06-05T12:30:22;26.20;43.60
37646;DHT22;23489;49.600;6.138;2023-06-05T12:32:47;26.20;42.70
37646;DHT22;23489;49.600;6.138;2023-06-05T12:35:23;26.20;43.40
37646;DHT22;23489;49.600;6.138;2023-06-05T12:37:49;26.00;43.80
37646;DHT22;23489;49.600;6.138;2023-06-05T12:40:15;26.00;43.80
37646;DHT22;23489;49.600;6.138;2023-06-05T12:42:46;25.90;44.30
37646;DHT22;23489;49.600;6.138;2023-06-05T12:45:11;25.90;43.90
37646;DHT22;23489;49.600;6.138;2023-06-05T12:47:37;26.10;43.70
37646;DHT22;23489;49.600;6.138;2023-06-05T12:50:04;26.10;43.40
37646;DHT22;23489;49.600;6.138;2023-06-05T12:52:30;26.00;43.70
37646;DHT22;23489;49.600;6.138;2023-06-05T12:54:55;26.10;43.60
37646;DHT22;23489;49.600;6.138;2023-06-05T12:57:25;26.20;43.10
37646;DHT22;23489;49.600;6.138;2023-06-05T12:59:52;26.20;42.40
37646;DHT22;23489;49.600;6.138;2023-06-05T13:02:18;26.30;43.80
37646;DHT22;23489;49.600;6.138;2023-06-05T13:04:44;26.20;44.10
37646;DHT22;23489;49.600;6.138;2023-06-05T13:07:09;26.10;44.60
37646;DHT22;23489;49.600;6.138;2023-06-05T13:09:38;26.00;44.10
37646;DHT22;23489;49.600;6.138;2023-06-05T13:12:04;25.80;44.40
37646;DHT22;23489;49.600;6.138;2023-06-05T13:14:30;25.80;44.70
37646;DHT22;23489;49.600;6.138;2023-06-05T13:16:56;25.90;44.80
37646;DHT22;23489;49.600;6.138;2023-06-05T13:19:21;26.20;45.10
37646;DHT22;23489;49.600;6.138;2023-06-05T13:21:47;26.20;44.70
37646;DHT22;23489;49.600;6.138;2023-06-05T13:24:12;26.10;45.50
37646;DHT22;23489;49.600;6.138;2023-06-05T13:26:38;26.20;44.90
37646;DHT22;23489;49.600;6.138;2023-06-05T13:29:04;26.20;45.40
37646;DHT22;23489;49.600;6.138;2023-06-05T13:31:30;26.30;44.60
37646;DHT22;23489;49.600;6.138;2023-06-05T13:33:56;26.40;44.30
37646;DHT22;23489;49.600;6.138;2023-06-05T13:36:21;26.40;43.90
37646;DHT22;23489;49.600;6.138;2023-06-05T13:38:49;26.50;44.20
37646;DHT22;23489;49.600;6.138;2023-06-05T13:41:15;26.30;44.40
37646;DHT22;23489;49.600;6.138;2023-06-05T13:43:40;26.10;44.80
37646;DHT22;23489;49.600;6.138;2023-06-05T13:46:06;26.00;44.60
37646;DHT22;23489;49.600;6.138;2023-06-05T13:48:31;25.90;44.60
37646;DHT22;23489;49.600;6.138;2023-06-05T13:51:00;26.00;44.70
37646;DHT22;23489;49.600;6.138;2023-06-05T13:53:25;26.10;44.30
37646;DHT22;23489;49.600;6.138;2023-06-05T13:55:52;26.20;43.90
37646;DHT22;23489;49.600;6.138;2023-06-05T13:58:18;26.40;43.80
37646;DHT22;23489;49.600;6.138;2023-06-05T14:00:43;26.30;44.00
37646;DHT22;23489;49.600;6.138;2023-06-05T14:03:09;26.60;44.30
37646;DHT22;23489;49.600;6.138;2023-06-05T14:05:35;26.60;44.70
37646;DHT22;23489;49.600;6.138;2023-06-05T14:08:00;26.70;45.30
37646;DHT22;23489;49.600;6.138;2023-06-05T14:10:26;26.60;45.70
37646;DHT22;23489;49.600;6.138;2023-06-05T14:12:52;26.60;45.40
37646;DHT22;23489;49.600;6.138;2023-06-05T14:15:18;26.40;45.40
37646;DHT22;23489;49.600;6.138;2023-06-05T14:17:44;26.20;45.50
37646;DHT22;23489;49.600;6.138;2023-06-05T14:20:10;26.10;45.40
37646;DHT22;23489;49.600;6.138;2023-06-05T14:22:36;25.90;45.50
37646;DHT22;23489;49.600;6.138;2023-06-05T14:25:02;25.80;45.70
37646;DHT22;23489;49.600;6.138;2023-06-05T14:27:28;25.70;45.80
37646;DHT22;23489;49.600;6.138;2023-06-05T14:29:54;25.60;46.20
37646;DHT22;23489;49.600;6.138;2023-06-05T14:32:20;25.70;46.50
37646;DHT22;23489;49.600;6.138;2023-06-05T14:34:45;25.80;46.50
37646;DHT22;23489;49.600;6.138;2023-06-05T14:37:11;25.80;46.60
37646;DHT22;23489;49.600;6.138;2023-06-05T14:39:36;26.00;46.40
37646;DHT22;23489;49.600;6.138;2023-06-05T14:42:02;26.10;45.80
37646;DHT22;23489;49.600;6.138;2023-06-05T14:44:27;26.20;45.90
37646;DHT22;23489;49.600;6.138;2023-06-05T14:46:53;26.30;45.50
37646;DHT22;23489;49.600;6.138;2023-06-05T14:49:19;26.20;45.50
37646;DHT22;23489;49.600;6.138;2023-06-05T14:51:45;26.50;45.50
37646;DHT22;23489;49.600;6.138;2023-06-05T14:54:10;26.60;45.60
37646;DHT22;23489;49.600;6.138;2023-06-05T14:56:36;26.30;46.30
37646;DHT22;23489;49.600;6.138;2023-06-05T14:59:01;26.10;46.40
37646;DHT22;23489;49.600;6.138;2023-06-05T15:01:27;25.70;47.70
37646;DHT22;23489;49.600;6.138;2023-06-05T15:03:52;25.30;48.40
37646;DHT22;23489;49.600;6.138;2023-06-05T15:06:18;25.10;48.10
37646;DHT22;23489;49.600;6.138;2023-06-05T15:08:43;25.00;47.90
37646;DHT22;23489;49.600;6.138;2023-06-05T15:11:09;24.90;48.00
37646;DHT22;23489;49.600;6.138;2023-06-05T15:13:35;24.90;47.60
37646;DHT22;23489;49.600;6.138;2023-06-05T15:16:00;25.00;47.90
37646;DHT22;23489;49.600;6.138;2023-06-05T15:18:26;25.10;47.80
37646;DHT22;23489;49.600;6.138;2023-06-05T15:20:52;25.20;47.80
37646;DHT22;23489;49.600;6.138;2023-06-05T15:23:17;25.50;47.20
37646;DHT22;23489;49.600;6.138;2023-06-05T15:25:43;25.60;47.10
37646;DHT22;23489;49.600;6.138;2023-06-05T15:28:08;25.60;46.50
37646;DHT22;23489;49.600;6.138;2023-06-05T15:30:34;25.70;47.50
37646;DHT22;23489;49.600;6.138;2023-06-05T15:33:00;25.80;47.60
37646;DHT22;23489;49.600;6.138;2023-06-05T15:35:25;25.80;47.20
37646;DHT22;23489;49.600;6.138;2023-06-05T15:37:52;25.60;47.20
37646;DHT22;23489;49.600;6.138;2023-06-05T15:40:18;25.50;48.10
37646;DHT22;23489;49.600;6.138;2023-06-05T15:42:43;25.50;47.70
37646;DHT22;23489;49.600;6.138;2023-06-05T15:45:13;25.30;47.50
37646;DHT22;23489;49.600;6.138;2023-06-05T15:47:40;25.40;47.90
37646;DHT22;23489;49.600;6.138;2023-06-05T15:50:06;25.40;46.80
37646;DHT22;23489;49.600;6.138;2023-06-05T15:52:33;25.40;47.00
37646;DHT22;23489;49.600;6.138;2023-06-05T15:54:58;25.40;46.60
37646;DHT22;23489;49.600;6.138;2023-06-05T15:57:24;25.40;46.70
37646;DHT22;23489;49.600;6.138;2023-06-05T15:59:50;25.40;47.40
37646;DHT22;23489;49.600;6.138;2023-06-05T16:02:16;25.40;47.60